createdAt,value
2022-08-07T00:00:25.876Z,16.03
2022-08-07T00:02:53.979Z,17.53
2022-08-07T00:05:23.573Z,13.57
2022-08-07T00:07:59.632Z,13.37
2022-08-07T00:10:30.474Z,12.57
2022-08-07T00:13:09.741Z,10.80
2022-08-07T00:15:52.074Z,11.23
2022-08-07T00:18:24.083Z,11.27
2022-08-07T00:20:54.543Z,10.23
2022-08-07T00:23:24.348Z,15.70
2022-08-07T00:26:01.624Z,9.67
2022-08-07T00:28:35.266Z,10.53
2022-08-07T00:31:16.449Z,8.97
2022-08-07T00:33:47.633Z,14.47
2022-08-07T00:36:16.839Z,10.07
2022-08-07T00:38:46.152Z,8.30
2022-08-07T00:41:14.826Z,12.73
2022-08-07T00:44:00.889Z,10.17
2022-08-07T00:46:33.035Z,11.57
2022-08-07T00:49:05.189Z,9.67
2022-08-07T00:51:56.989Z,10.67
2022-08-07T00:54:24.909Z,12.10
2022-08-07T00:56:53.220Z,9.67
2022-08-07T00:59:35.387Z,8.43
2022-08-07T01:02:04.436Z,9.23
2022-08-07T01:04:43.235Z,10.17
2022-08-07T01:07:12.686Z,7.03
2022-08-07T01:10:06.514Z,10.37
2022-08-07T01:12:31.071Z,7.87
2022-08-07T01:15:01.266Z,7.67
2022-08-07T01:17:32.491Z,11.13
2022-08-07T01:20:08.075Z,10.20
2022-08-07T01:22:46.823Z,8.83
2022-08-07T01:25:54.580Z,7.63
2022-08-07T01:28:13.604Z,5.47
2022-08-07T01:30:42.954Z,10.33
2022-08-07T01:33:13.075Z,11.03
2022-08-07T01:35:53.442Z,7.87
2022-08-07T01:38:25.557Z,14.90
2022-08-07T01:40:56.508Z,8.57
2022-08-07T01:43:25.954Z,6.20
2022-08-07T01:45:54.792Z,5.90
2022-08-07T01:48:30.547Z,8.07
2022-08-07T01:51:24.224Z,9.20
2022-08-07T01:54:11.771Z,10.50
2022-08-07T01:56:49.391Z,11.50
2022-08-07T01:59:24.102Z,10.77
2022-08-07T02:02:06.233Z,10.07
2022-08-07T02:04:52.598Z,8.37
2022-08-07T02:07:36.123Z,8.50
2022-08-07T02:10:18.834Z,5.43
2022-08-07T02:12:50.286Z,4.73
2022-08-07T02:15:23.744Z,4.57
2022-08-07T02:17:56.513Z,6.23
2022-08-07T02:20:24.957Z,7.00
2022-08-07T02:22:57.551Z,13.87
2022-08-07T02:26:10.464Z,8.93
2022-08-07T02:28:25.576Z,6.70
2022-08-07T02:30:56.194Z,6.13
2022-08-07T02:33:41.927Z,4.67
2022-08-07T02:36:29.365Z,5.77
2022-08-07T02:39:02.254Z,3.27
2022-08-07T02:41:54.511Z,9.07
2022-08-07T02:44:26.856Z,3.90
2022-08-07T02:46:57.795Z,5.77
2022-08-07T02:49:56.036Z,10.47
2022-08-07T02:52:21.626Z,3.40
2022-08-07T02:55:03.992Z,4.40
2022-08-07T02:57:37.569Z,4.67
2022-08-07T03:00:11.181Z,6.60
2022-08-07T03:02:55.027Z,3.47
2022-08-07T03:05:25.442Z,5.23
2022-08-07T03:08:07.562Z,4.67
2022-08-07T03:10:46.768Z,5.07
2022-08-07T03:13:19.766Z,3.47
2022-08-07T03:15:56.834Z,8.47
2022-08-07T03:18:35.066Z,9.87
2022-08-07T03:21:08.490Z,7.57
2022-08-07T03:24:17.619Z,6.83
2022-08-07T03:26:32.565Z,4.87
2022-08-07T03:29:03.875Z,3.27
2022-08-07T03:31:43.208Z,4.97
2022-08-07T03:34:18.445Z,4.47
2022-08-07T03:36:52.930Z,5.80
2022-08-07T03:39:59.766Z,3.87
2022-08-07T03:42:11.373Z,3.23
2022-08-07T03:44:41.995Z,4.80
2022-08-07T03:47:13.124Z,3.40
2022-08-07T03:49:49.916Z,3.93
2022-08-07T03:52:26.473Z,5.00
2022-08-07T03:54:57.386Z,4.07
2022-08-07T03:58:34.295Z,3.50
2022-08-07T04:00:30.457Z,8.00
2022-08-07T04:03:03.630Z,4.90
2022-08-07T04:05:39.640Z,4.13
2022-08-07T04:08:11.550Z,5.87
2022-08-07T04:10:42.477Z,7.93
2022-08-07T04:13:27.566Z,4.40
2022-08-07T04:15:57.374Z,4.37
2022-08-07T04:18:57.519Z,3.60
2022-08-07T04:21:14.859Z,6.10
2022-08-07T04:24:06.070Z,6.40
2022-08-07T04:26:32.369Z,3.07
2022-08-07T04:29:00.082Z,5.07
2022-08-07T04:32:02.313Z,3.53
2022-08-07T04:34:27.478Z,6.17
2022-08-07T04:37:01.505Z,8.00
2022-08-07T04:39:35.815Z,4.97
2022-08-07T04:42:04.790Z,4.40
2022-08-07T04:44:34.205Z,2.93
2022-08-07T04:47:10.553Z,4.97
2022-08-07T04:50:04.201Z,4.23
2022-08-07T04:52:46.665Z,3.57
2022-08-07T04:58:24.302Z,3.93
2022-08-07T04:58:33.696Z,5.43
2022-08-07T05:01:18.052Z,7.80
2022-08-07T05:04:07.158Z,3.27
2022-08-07T05:06:39.394Z,4.70
2022-08-07T05:09:27.976Z,2.90
2022-08-07T05:12:15.634Z,5.63
2022-08-07T05:15:03.483Z,5.87
2022-08-07T05:17:52.096Z,3.47
2022-08-07T05:20:27.311Z,5.70
2022-08-07T05:22:59.456Z,2.57
2022-08-07T05:25:37.401Z,2.63
2022-08-07T05:28:21.260Z,2.53
2022-08-07T05:30:53.265Z,6.33
2022-08-07T05:33:22.444Z,3.83
2022-08-07T05:35:52.831Z,8.30
2022-08-07T05:39:00.201Z,10.80
2022-08-07T05:41:14.431Z,5.23
2022-08-07T05:44:01.273Z,3.70
2022-08-07T05:46:32.828Z,2.80
2022-08-07T05:49:01.465Z,4.30
2022-08-07T05:51:42.893Z,4.00
2022-08-07T05:54:19.602Z,2.80
2022-08-07T05:56:59.704Z,3.33
2022-08-07T05:59:28.647Z,3.10
2022-08-07T06:02:08.275Z,3.97
2022-08-07T06:04:40.705Z,6.57
2022-08-07T06:07:22.932Z,3.47
2022-08-07T06:10:05.421Z,3.60
2022-08-07T06:12:34.975Z,3.47
2022-08-07T06:15:05.651Z,3.50
2022-08-07T06:17:37.917Z,2.83
2022-08-07T06:20:12.627Z,5.80
2022-08-07T06:23:02.509Z,6.17
2022-08-07T06:25:53.969Z,5.93
2022-08-07T06:28:27.912Z,2.57
2022-08-07T06:30:58.195Z,2.53
2022-08-07T06:33:27.130Z,4.03
2022-08-07T06:36:11.793Z,2.30
2022-08-07T06:38:59.569Z,4.80
2022-08-07T06:42:00.941Z,4.50
2022-08-07T06:44:24.848Z,3.37
2022-08-07T06:47:12.631Z,3.80
2022-08-07T06:49:52.305Z,3.53
2022-08-07T06:52:35.652Z,4.60
2022-08-07T06:55:31.896Z,8.50
2022-08-07T06:58:04.334Z,4.13
2022-08-07T07:00:37.111Z,2.30
2022-08-07T07:03:08.663Z,2.17
2022-08-07T07:06:04.395Z,3.30
2022-08-07T07:08:28.221Z,1.80
2022-08-07T07:11:01.010Z,3.53
2022-08-07T07:13:56.412Z,2.50
2022-08-07T07:16:27.587Z,5.13
2022-08-07T07:19:11.498Z,4.17
2022-08-07T07:22:05.289Z,4.43
2022-08-07T07:24:43.051Z,4.80
2022-08-07T07:27:35.851Z,2.53
2022-08-07T07:30:26.549Z,2.37
2022-08-07T07:33:02.665Z,5.87
2022-08-07T07:35:33.406Z,2.23
2022-08-07T07:38:05.804Z,4.83
2022-08-07T07:40:35.243Z,2.00
2022-08-07T07:43:15.078Z,4.27
2022-08-07T07:46:36.790Z,5.53
2022-08-07T07:48:38.293Z,2.00
2022-08-07T07:51:09.070Z,6.93
2022-08-07T07:53:52.083Z,6.53
2022-08-07T07:56:30.422Z,3.90
2022-08-07T07:59:02.680Z,2.67
2022-08-07T08:02:03.514Z,1.93
2022-08-07T08:04:25.409Z,2.43
2022-08-07T08:06:55.011Z,2.00
2022-08-07T08:09:29.169Z,2.33
2022-08-07T08:12:01.624Z,3.00
2022-08-07T08:14:36.076Z,1.97
2022-08-07T08:17:56.118Z,2.27
2022-08-07T08:20:17.859Z,3.33
2022-08-07T08:23:08.224Z,3.83
2022-08-07T08:25:58.043Z,3.60
2022-08-07T08:28:37.779Z,6.03
2022-08-07T08:31:14.680Z,3.40
2022-08-07T08:33:49.295Z,3.53
2022-08-07T08:36:25.394Z,2.33
2022-08-07T08:39:01.610Z,3.33
2022-08-07T08:41:58.622Z,3.33
2022-08-07T08:44:31.527Z,3.60
2022-08-07T08:47:09.813Z,3.00
2022-08-07T08:49:46.773Z,2.87
2022-08-07T08:52:40.758Z,4.10
2022-08-07T08:55:54.704Z,1.60
2022-08-07T08:58:25.009Z,2.47
2022-08-07T09:01:14.805Z,4.10
2022-08-07T09:03:55.428Z,7.87
2022-08-07T09:06:36.753Z,2.43
2022-08-07T09:09:20.677Z,3.40
2022-08-07T09:12:08.973Z,2.13
2022-08-07T09:15:00.667Z,2.40
2022-08-07T09:18:01.419Z,4.63
2022-08-07T09:20:58.037Z,1.73
2022-08-07T09:24:55.261Z,3.33
2022-08-07T09:26:28.838Z,2.60
2022-08-07T09:30:05.932Z,2.13
2022-08-07T09:32:00.528Z,3.40
2022-08-07T09:34:33.868Z,2.67
2022-08-07T09:37:12.779Z,2.40
2022-08-07T09:39:54.869Z,4.90
2022-08-07T09:42:38.962Z,2.57
2022-08-07T09:47:26.193Z,5.63
2022-08-07T09:48:18.849Z,7.00
2022-08-07T09:50:57.136Z,2.27
2022-08-07T09:53:41.188Z,6.17
2022-08-07T09:56:52.251Z,2.07
2022-08-07T10:00:00.880Z,4.60
2022-08-07T10:02:57.810Z,3.17
2022-08-07T10:05:58.986Z,2.13
2022-08-07T10:09:08.210Z,2.67
2022-08-07T10:12:02.692Z,3.27
2022-08-07T10:15:05.160Z,3.50
2022-08-07T10:18:01.678Z,3.67
2022-08-07T10:20:41.044Z,3.57
2022-08-07T10:24:06.702Z,2.20
2022-08-07T10:26:35.022Z,1.40
2022-08-07T10:29:19.167Z,4.53
2022-08-07T10:32:16.470Z,2.40
2022-08-07T10:35:16.449Z,3.27
2022-08-07T10:38:34.938Z,3.63
2022-08-07T10:40:53.249Z,5.73
2022-08-07T10:43:34.479Z,1.97
2022-08-07T10:46:10.362Z,4.93
2022-08-07T10:48:48.530Z,2.77
2022-08-07T10:51:39.351Z,2.07
2022-08-07T10:54:16.130Z,2.60
2022-08-07T10:57:02.998Z,3.30
2022-08-07T10:59:59.950Z,3.67
2022-08-07T11:02:34.973Z,1.63
2022-08-07T11:05:49.151Z,3.17
2022-08-07T11:08:31.470Z,2.33
2022-08-07T11:11:05.089Z,1.93
2022-08-07T11:14:45.852Z,2.10
2022-08-07T11:16:33.689Z,4.27
2022-08-07T11:19:10.941Z,5.40
2022-08-07T11:21:46.351Z,3.83
2022-08-07T11:24:31.848Z,3.90
2022-08-07T11:27:08.252Z,3.60
2022-08-07T11:29:47.468Z,2.63
2022-08-07T11:32:25.238Z,1.60
2022-08-07T11:34:58.521Z,1.97
2022-08-07T11:37:57.492Z,2.10
2022-08-07T11:40:35.796Z,5.93
2022-08-07T11:43:15.612Z,3.03
2022-08-07T11:46:10.638Z,4.80
2022-08-07T11:49:50.717Z,2.43
2022-08-07T11:52:00.298Z,4.60
2022-08-07T11:54:54.837Z,3.00
2022-08-07T11:57:59.772Z,3.30
2022-08-07T12:00:27.529Z,4.97
2022-08-07T12:03:41.441Z,6.67
2022-08-07T12:06:51.762Z,3.23
2022-08-07T12:09:35.008Z,2.10
2022-08-07T12:12:09.086Z,4.37
2022-08-07T12:14:53.829Z,2.23
2022-08-07T12:17:33.804Z,3.07
2022-08-07T12:20:29.773Z,3.13
2022-08-07T12:23:15.357Z,2.20
2022-08-07T12:26:02.854Z,3.97
2022-08-07T12:28:52.829Z,2.77
2022-08-07T12:31:52.674Z,4.03
2022-08-07T12:34:20.971Z,2.27
2022-08-07T12:36:54.046Z,4.30
2022-08-07T12:39:44.422Z,3.23
2022-08-07T12:42:16.855Z,2.40
2022-08-07T12:44:52.911Z,6.57
2022-08-07T12:47:31.677Z,5.30
2022-08-07T12:50:33.835Z,3.30
2022-08-07T12:53:05.242Z,2.33
2022-08-07T12:56:02.974Z,2.00
2022-08-07T12:58:37.564Z,2.17
2022-08-07T13:01:20.369Z,1.60
2022-08-07T13:04:05.224Z,4.13
2022-08-07T13:06:54.242Z,1.67
2022-08-07T13:10:37.124Z,2.60
2022-08-07T13:12:47.383Z,2.17
2022-08-07T13:15:29.520Z,1.87
2022-08-07T13:18:26.553Z,4.07
2022-08-07T13:21:07.143Z,3.77
2022-08-07T13:24:02.146Z,3.03
2022-08-07T13:26:41.782Z,3.03
2022-08-07T13:29:17.810Z,1.73
2022-08-07T13:31:57.357Z,2.07
2022-08-07T13:34:44.567Z,2.93
2022-08-07T13:37:24.562Z,2.83
2022-08-07T13:40:36.405Z,7.07
2022-08-07T13:42:53.738Z,2.00
2022-08-07T13:46:10.872Z,1.83
2022-08-07T13:48:27.392Z,1.70
2022-08-07T13:51:20.471Z,4.77
2022-08-07T13:53:59.732Z,2.93
2022-08-07T13:56:40.907Z,4.20
2022-08-07T13:59:22.596Z,2.93
2022-08-07T14:02:03.918Z,4.77
2022-08-07T14:04:37.404Z,3.23
2022-08-07T14:07:10.124Z,2.47
2022-08-07T14:10:02.858Z,2.20
2022-08-07T14:12:41.705Z,4.50
2022-08-07T14:15:22.386Z,3.27
2022-08-07T14:18:27.258Z,3.47
2022-08-07T14:20:54.762Z,4.50
2022-08-07T14:23:59.432Z,3.20
2022-08-07T14:26:30.385Z,3.83
2022-08-07T14:30:02.621Z,2.40
2022-08-07T14:31:56.343Z,3.87
2022-08-07T14:34:30.779Z,3.00
2022-08-07T14:37:03.226Z,3.67
2022-08-07T14:40:16.164Z,5.83
2022-08-07T14:42:27.625Z,1.77
2022-08-07T14:45:22.022Z,2.73
2022-08-07T14:47:53.026Z,3.03
2022-08-07T14:50:37.594Z,1.83
2022-08-07T14:53:09.811Z,2.93
2022-08-07T14:55:55.981Z,2.20
2022-08-07T14:58:33.279Z,1.83
2022-08-07T15:01:21.982Z,2.23
2022-08-07T15:03:52.671Z,5.53
2022-08-07T15:06:26.687Z,2.17
2022-08-07T15:08:56.001Z,10.67
2022-08-07T15:11:53.594Z,2.53
2022-08-07T15:14:18.776Z,2.20
2022-08-07T15:16:54.823Z,3.67
2022-08-07T15:20:30.426Z,2.27
2022-08-07T15:22:23.194Z,4.00
2022-08-07T15:25:17.253Z,3.13
2022-08-07T15:28:32.367Z,4.37
2022-08-07T15:30:59.540Z,2.30
2022-08-07T15:36:15.468Z,2.90
2022-08-07T15:39:10.621Z,2.03
2022-08-07T15:42:42.279Z,3.37
2022-08-07T15:44:31.629Z,2.50
2022-08-07T15:47:08.917Z,3.03
2022-08-07T15:50:04.397Z,2.50
2022-08-07T15:52:37.283Z,4.53
2022-08-07T15:55:11.401Z,4.97
2022-08-07T15:57:49.164Z,2.20
2022-08-07T16:00:31.029Z,3.57
2022-08-07T16:03:04.492Z,4.97
2022-08-07T16:05:33.516Z,3.30
2022-08-07T16:08:31.236Z,3.73
2022-08-07T16:11:03.405Z,1.77
2022-08-07T16:13:58.707Z,3.77
2022-08-07T16:16:43.124Z,3.20
2022-08-07T16:19:42.668Z,6.47
2022-08-07T16:22:37.624Z,2.57
2022-08-07T16:25:23.084Z,3.87
2022-08-07T16:30:05.747Z,3.53
2022-08-07T16:31:51.197Z,3.97
2022-08-07T16:34:24.660Z,4.13
2022-08-07T16:38:06.869Z,4.47
2022-08-07T16:40:30.814Z,1.87
2022-08-07T16:43:13.543Z,2.90
2022-08-07T16:50:20.116Z,4.27
2022-08-07T16:53:14.908Z,1.73
2022-08-07T16:55:43.690Z,3.53
2022-08-07T16:58:25.606Z,2.70
2022-08-07T17:01:15.911Z,7.27
2022-08-07T17:04:00.137Z,3.30
2022-08-07T17:06:45.306Z,4.03
2022-08-07T17:10:08.153Z,2.97
2022-08-07T17:12:35.041Z,4.83
2022-08-07T17:15:08.754Z,3.63
2022-08-07T17:17:50.033Z,6.80
2022-08-07T17:20:32.926Z,9.50
2022-08-07T17:23:11.441Z,3.13
2022-08-07T17:25:57.165Z,3.07
2022-08-07T17:28:35.520Z,2.73
2022-08-07T17:31:15.634Z,5.07
2022-08-07T17:34:15.570Z,3.30
2022-08-07T17:36:57.694Z,4.27
2022-08-07T17:39:58.279Z,5.10
2022-08-07T17:42:59.303Z,4.17
2022-08-07T17:45:35.223Z,2.70
2022-08-07T17:48:08.701Z,2.80
2022-08-07T17:50:54.383Z,3.67
2022-08-07T17:54:01.171Z,7.20
2022-08-07T17:56:29.051Z,3.43
2022-08-07T17:59:08.978Z,4.70
2022-08-07T18:01:48.473Z,1.93
2022-08-07T18:04:31.155Z,5.00
2022-08-07T18:07:22.557Z,1.80
2022-08-07T18:10:06.078Z,2.97
2022-08-07T18:12:49.552Z,2.93
2022-08-07T18:15:23.613Z,4.33
2022-08-07T18:18:44.948Z,3.37
2022-08-07T18:21:07.394Z,2.77
2022-08-07T18:23:59.773Z,3.53
2022-08-07T18:26:49.611Z,1.87
2022-08-07T18:30:06.278Z,3.20
2022-08-07T18:32:25.677Z,2.00
2022-08-07T18:35:12.190Z,3.77
2022-08-07T18:38:55.882Z,3.77
2022-08-07T18:41:09.293Z,3.93
2022-08-07T18:43:57.820Z,7.10
2022-08-07T18:46:33.049Z,1.93
2022-08-07T18:50:30.132Z,3.37
2022-08-07T18:52:35.501Z,2.77
2022-08-07T18:55:41.912Z,4.97
2022-08-07T18:58:03.829Z,3.67
2022-08-07T19:00:54.116Z,2.63
2022-08-07T19:03:36.121Z,2.13
2022-08-07T19:06:10.392Z,2.53
2022-08-07T19:08:59.932Z,3.17
2022-08-07T19:12:04.013Z,5.50
2022-08-07T19:15:00.597Z,4.73
2022-08-07T19:18:05.990Z,5.63
2022-08-07T19:20:36.823Z,2.67
2022-08-07T19:23:17.882Z,3.00
2022-08-07T19:26:23.163Z,4.30
2022-08-07T19:30:55.343Z,2.07
2022-08-07T19:32:08.255Z,2.20
2022-08-07T19:34:34.353Z,2.13
2022-08-07T19:37:17.083Z,2.10
2022-08-07T19:39:57.399Z,3.63
2022-08-07T19:42:31.591Z,3.43
2022-08-07T19:45:08.383Z,4.13
2022-08-07T19:47:42.005Z,3.30
2022-08-07T19:50:44.467Z,3.63
2022-08-07T19:53:01.046Z,6.30
2022-08-07T19:55:58.068Z,4.13
2022-08-07T19:58:28.379Z,3.50
2022-08-07T20:00:58.473Z,2.23
2022-08-07T20:03:34.891Z,6.07
2022-08-07T20:06:15.254Z,5.50
2022-08-07T20:08:48.888Z,2.87
2022-08-07T20:11:23.323Z,4.57
2022-08-07T20:14:13.558Z,4.57
2022-08-07T20:16:54.525Z,2.37
2022-08-07T20:19:28.781Z,7.40
2022-08-07T20:22:29.181Z,3.17
2022-08-07T20:25:19.306Z,5.37
2022-08-07T20:27:54.303Z,3.63
2022-08-07T20:30:31.815Z,4.80
2022-08-07T20:33:02.276Z,4.40
2022-08-07T20:35:36.522Z,3.77
2022-08-07T20:38:24.529Z,6.33
2022-08-07T20:40:56.996Z,3.90
2022-08-07T20:43:26.756Z,4.60
2022-08-07T20:46:28.095Z,4.50
2022-08-07T20:49:02.411Z,3.43
2022-08-07T20:51:35.742Z,6.77
2022-08-07T20:54:12.107Z,5.20
2022-08-07T20:56:49.914Z,3.03
2022-08-07T21:00:04.715Z,6.40
2022-08-07T21:02:33.317Z,12.57
2022-08-07T21:05:04.532Z,10.37
2022-08-07T21:07:39.548Z,7.17
2022-08-07T21:10:11.587Z,5.93
2022-08-07T21:12:41.233Z,4.97
2022-08-07T21:15:18.785Z,3.47
2022-08-07T21:18:20.847Z,4.90
2022-08-07T21:20:40.682Z,4.37
2022-08-07T21:23:26.173Z,3.30
2022-08-07T21:26:04.671Z,6.17
2022-08-07T21:28:50.291Z,6.27
2022-08-07T21:31:49.172Z,3.00
2022-08-07T21:34:20.996Z,4.93
2022-08-07T21:36:54.753Z,5.30
2022-08-07T21:39:45.575Z,5.57
2022-08-07T21:42:46.807Z,6.03
2022-08-07T21:46:11.077Z,5.27
2022-08-07T21:48:28.803Z,4.53
2022-08-07T21:51:19.973Z,6.10
2022-08-07T21:53:56.165Z,3.83
2022-08-07T21:56:39.649Z,3.17
2022-08-07T21:59:22.489Z,4.77
2022-08-07T22:02:10.504Z,6.53
2022-08-07T22:04:53.739Z,4.20
2022-08-07T22:07:31.599Z,2.73
2022-08-07T22:10:14.587Z,3.37
2022-08-07T22:12:47.056Z,6.17
2022-08-07T22:16:40.195Z,3.40
2022-08-07T22:18:20.492Z,3.03
2022-08-07T22:20:53.670Z,7.60
2022-08-07T22:23:27.498Z,4.60
2022-08-07T22:26:06.144Z,5.17
2022-08-07T22:28:48.444Z,4.17
2022-08-07T22:31:56.133Z,4.67
2022-08-07T22:34:28.943Z,3.33
2022-08-07T22:37:09.494Z,5.67
2022-08-07T22:39:52.594Z,3.73
2022-08-07T22:42:26.077Z,3.77
2022-08-07T22:46:04.867Z,6.07
2022-08-07T22:48:56.328Z,3.67
2022-08-07T22:51:36.334Z,5.70
2022-08-07T22:54:20.856Z,4.97
2022-08-07T22:57:03.887Z,8.90
2022-08-07T22:59:52.187Z,4.80
2022-08-07T23:02:34.516Z,4.33
2022-08-07T23:06:10.342Z,3.93
2022-08-07T23:08:42.058Z,3.57
2022-08-07T23:11:29.525Z,4.00
2022-08-07T23:14:26.469Z,3.30
2022-08-07T23:17:15.920Z,4.83
2022-08-07T23:20:14.219Z,7.00
2022-08-07T23:22:58.139Z,4.53
2022-08-07T23:25:38.944Z,5.10
2022-08-07T23:28:29.047Z,6.13
2022-08-07T23:32:50.342Z,5.87
2022-08-07T23:34:38.013Z,3.13
2022-08-07T23:37:22.569Z,3.13
2022-08-07T23:40:04.377Z,3.30
2022-08-07T23:42:53.135Z,5.97
2022-08-07T23:46:01.874Z,3.23
2022-08-07T23:48:34.081Z,3.63
2022-08-07T23:52:53.471Z,4.33
2022-08-07T23:54:05.135Z,6.93
2022-08-07T23:56:53.561Z,6.20
